San Antonio North's Hourly Summary for Friday, July 6, 2018
Hour Temp
(f)
RH
(%)
Solar Rad.
(MJ/m2)
Rainfall
(in)
Wind
(mph)
7/6/2018 12:00 AM 78 75 0 0 0.01
7/6/2018 1:00 AM 77 77 0 0 0
7/6/2018 2:00 AM 76 82 0 0 0
7/6/2018 3:00 AM 76 81 0 0 0
7/6/2018 4:00 AM 76 84 0 0 0
7/6/2018 5:00 AM 75 78 0 0 1.11
7/6/2018 6:00 AM 75 79 0 0 0.47
7/6/2018 7:00 AM 75 80 0 0.03 1.76
7/6/2018 8:00 AM 72 90 0.15 0.15 4.04
7/6/2018 9:00 AM 74 85 0.7 0.01 2.08
7/6/2018 10:00 AM 78 69 1.75 0 3.37
7/6/2018 11:00 AM 82 61 1.93 0 2.77
7/6/2018 12:00 PM 85 55 2.82 0 2.8
7/6/2018 1:00 PM 87 50 2.54 0 2.25
7/6/2018 2:00 PM 88 47 2.42 0 3.79
7/6/2018 3:00 PM 90 45 3.39 0 4.9
7/6/2018 4:00 PM 92 39 3.01 0 6.45
7/6/2018 5:00 PM 93 37 2.38 0 5.81
7/6/2018 6:00 PM 93 36 1.71 0 5.77
7/6/2018 7:00 PM 90 36 1.24 0 3.89
7/6/2018 8:00 PM 86 57 0.6 0 0.92
7/6/2018 9:00 PM 83 59 0.07 0 0.19
7/6/2018 10:00 PM 81 68 0 0 0.01
7/6/2018 11:00 PM 80 70 0 0 0.07
Data Summary 81 64 24.71 0.19 2.19